Time;durP1;ratioP1;P1;durP2;ratioP2;P2;SDS_P1;SDS_P2;PMS_P1;PMS_P2;Temp;Humidity;BMP_temperature;BMP_pressure;BME280_temperature;BME280_humidity;BME280_pressure;Samples;Min_cycle;Max_cycle;Signal;HPM_P1;HPM_P2
2021/01/15 00:01:37;;;;;;;6.17;5.58;;;;;;;2.75;60.48;99973.05;2273921;87;25583;-86
2021/01/15 00:04:59;;;;;;;6.28;5.53;;;;;;;2.72;60.50;99975.47;2276302;86;25450;-82
2021/01/15 00:23:49;;;;;;;7.10;5.90;;;;;;;2.55;60.17;99996.12;2229825;83;25872;-84
2021/01/15 00:27:11;;;;;;;7.15;6.45;;;;;;;2.50;60.12;100000.58;2340059;82;25587;-82
2021/01/15 00:30:41;;;;;;;6.95;6.15;;;;;;;2.46;60.09;100001.21;2330118;84;25749;-84
2021/01/15 00:34:04;;;;;;;7.05;6.35;;;;;;;2.43;60.06;100011.34;2330068;84;25540;-83
2021/01/15 00:37:26;;;;;;;8.13;5.55;;;;;;;2.39;59.98;100005.16;2330276;84;25386;-83
2021/01/15 00:41:09;;;;;;;8.03;5.58;;;;;;;2.35;59.92;100010.56;2330212;84;25767;-82
2021/01/15 00:44:38;;;;;;;6.30;5.20;;;;;;;2.31;59.86;100018.94;2326839;83;25367;-82
2021/01/15 00:48:31;;;;;;;7.22;6.53;;;;;;;2.27;59.83;100018.31;2295659;84;32955;-83
2021/01/15 00:51:53;;;;;;;7.17;6.08;;;;;;;2.22;59.77;100025.30;2292338;84;25729;-85
2021/01/15 00:55:20;;;;;;;6.17;5.60;;;;;;;2.16;59.70;100030.13;2298727;84;25700;-85
2021/01/15 00:58:41;;;;;;;7.67;6.20;;;;;;;2.11;59.67;100041.06;2299000;86;25621;-85
2021/01/15 01:02:03;;;;;;;9.30;7.58;;;;;;;2.06;59.60;100048.96;2296124;84;26281;-82
2021/01/15 01:23:20;;;;;;;7.27;6.57;;;;;;;1.75;59.25;100034.88;2602329;75;35183;-85
2021/01/15 01:26:45;;;;;;;6.65;5.87;;;;;;;1.66;59.25;100035.70;2489176;79;25655;-85
2021/01/15 01:30:08;;;;;;;6.37;5.78;;;;;;;1.61;59.22;100035.83;2488262;79;25620;-81
2021/01/15 01:33:36;;;;;;;7.35;6.47;;;;;;;1.57;59.22;100038.64;2418765;80;25580;-82
2021/01/15 01:37:52;;;;;;;6.10;5.50;;;;;;;1.53;59.17;100035.84;2418501;79;25725;-84
2021/01/15 01:41:38;;;;;;;6.90;6.10;;;;;;;1.49;59.14;100051.89;2506948;77;26072;-84
2021/01/15 01:45:15;;;;;;;6.45;5.58;;;;;;;1.44;59.09;100055.47;2462986;78;25880;-83
2021/01/15 01:53:37;;;;;;;5.47;4.95;;;;;;;1.36;58.99;100060.61;2312540;83;26108;-83
2021/01/15 01:57:45;;;;;;;6.30;5.65;;;;;;;1.31;58.93;100056.89;2262734;85;25805;-83
2021/01/15 02:23:49;;;;;;;6.77;6.10;;;;;;;1.06;58.81;100091.47;2469535;78;35043;-83
2021/01/15 02:28:12;;;;;;;9.78;5.50;;;;;;;1.01;58.85;100100.98;2412695;80;26545;-82
2021/01/15 02:32:43;;;;;;;8.35;6.90;;;;;;;1.00;58.81;100099.22;2415664;80;25892;-82
2021/01/15 02:36:43;;;;;;;6.30;5.67;;;;;;;0.98;58.85;100094.02;2411798;80;25560;-83
2021/01/15 02:44:52;;;;;;;7.62;6.40;;;;;;;0.97;58.75;100108.91;2267448;84;25754;-85
2021/01/15 02:48:33;;;;;;;7.47;5.92;;;;;;;0.95;58.71;100111.80;2207655;88;26145;-82
2021/01/15 02:52:12;;;;;;;7.53;5.87;;;;;;;0.94;58.70;100116.06;2289688;85;26066;-84
2021/01/15 02:55:40;;;;;;;6.20;5.60;;;;;;;0.93;58.62;100109.13;2270604;85;35323;-83
2021/01/15 02:59:15;;;;;;;6.85;5.92;;;;;;;0.92;58.59;100105.21;2273803;85;26812;-84
2021/01/15 03:33:57;;;;;;;7.97;5.87;;;;;;;0.81;58.53;100100.75;2381939;80;25728;-82
2021/01/15 03:37:19;;;;;;;7.90;5.95;;;;;;;0.80;58.53;100100.23;2391910;81;25870;-83
2021/01/15 03:40:53;;;;;;;7.60;6.45;;;;;;;0.81;58.53;100100.75;2366189;81;25764;-82
2021/01/15 03:49:22;;;;;;;10.08;6.25;;;;;;;0.81;58.48;100100.75;2331767;82;25691;-85
2021/01/15 03:52:51;;;;;;;8.10;6.22;;;;;;;0.81;58.46;100098.19;2294840;83;25613;-81
2021/01/15 03:56:22;;;;;;;8.53;6.08;;;;;;;0.81;58.45;100097.27;2288393;84;25905;-83
2021/01/15 03:59:43;;;;;;;7.35;6.12;;;;;;;0.81;58.42;100084.44;2360499;82;25237;-83
2021/01/15 04:03:09;;;;;;;6.70;5.25;;;;;;;0.82;58.41;100096.50;2346257;83;25723;-85
2021/01/15 04:06:30;;;;;;;7.72;5.35;;;;;;;0.81;58.41;100103.69;2351647;83;25734;-83
2021/01/15 04:09:52;;;;;;;6.37;5.75;;;;;;;0.81;58.40;100108.81;2353782;83;25353;-83
2021/01/15 04:13:16;;;;;;;6.85;5.75;;;;;;;0.83;58.40;100108.52;2385214;80;26128;-83
2021/01/15 04:17:16;;;;;;;7.70;5.65;;;;;;;0.81;58.39;100113.58;2373823;80;25837;-84
2021/01/15 04:26:18;;;;;;;9.23;6.15;;;;;;;0.80;58.33;100104.09;2310621;79;26148;-83
2021/01/15 04:29:46;;;;;;;9.33;6.75;;;;;;;0.81;58.31;100113.95;2372084;81;26278;-85
2021/01/15 04:33:46;;;;;;;6.67;5.73;;;;;;;0.80;58.30;100106.66;2366641;81;25937;-85
2021/01/15 04:52:22;;;;;;;;;;;;;;;;;;;;;
2021/01/15 05:07:13;;;;;;;6.70;6.00;;;;;;;0.76;58.01;100126.92;2535122;77;35071;-83
2021/01/15 05:10:44;;;;;;;9.30;5.90;;;;;;;0.69;58.05;100116.70;2473177;78;25560;-82
2021/01/15 05:26:24;;;;;;;8.37;5.27;;;;;;;0.65;57.93;100104.50;2349954;79;34724;-82
2021/01/15 05:39:37;;;;;;;9.28;6.47;;;;;;;0.58;57.95;100125.46;2230950;85;25807;-83
2021/01/15 06:17:53;;;;;;;11.18;6.78;;;;;;;0.53;57.80;100142.24;2144108;90;26091;-82
2021/01/15 06:22:20;;;;;;;9.53;5.93;;;;;;;0.59;57.74;100151.59;2570465;75;34553;-82
2021/01/15 06:26:47;;;;;;;9.33;6.70;;;;;;;0.54;57.76;100156.45;2418810;81;26065;-81
2021/01/15 06:30:37;;;;;;;8.20;6.03;;;;;;;0.55;57.75;100153.49;2427417;80;25589;-81
2021/01/15 06:34:00;;;;;;;9.20;6.30;;;;;;;0.55;57.71;100153.09;2443454;80;25775;-81
2021/01/15 06:52:48;;;;;;;10.30;6.78;;;;;;;0.57;57.64;100174.97;2410375;79;26075;-85
2021/01/15 06:56:18;;;;;;;11.15;6.22;;;;;;;0.59;57.61;100183.66;2408510;80;25968;-83
2021/01/15 07:05:14;;;;;;;8.10;6.17;;;;;;;0.64;57.58;100195.06;2398904;80;25849;-85
2021/01/15 07:08:51;;;;;;;;;;;;;;;;;;;;;
2021/01/15 07:13:12;;;;;;;8.98;6.92;;;;;;;0.68;57.52;100206.90;2311285;82;25680;-81
2021/01/15 07:25:50;;;;;;;9.78;6.75;;;;;;;0.77;57.40;100192.43;2186910;89;25835;-83
2021/01/15 07:40:46;;;;;;;7.60;6.00;;;;;;;0.97;57.12;100188.48;2374845;76;34884;-84
2021/01/15 07:44:34;;;;;;;7.70;6.15;;;;;;;0.96;57.13;100188.41;2275601;86;25728;-82
2021/01/15 07:53:45;;;;;;;11.12;7.87;;;;;;;1.03;57.05;100191.81;2258356;86;25621;-82
2021/01/15 07:57:14;;;;;;;10.00;7.03;;;;;;;1.08;57.00;100187.81;2251515;86;26047;-81
2021/01/15 08:11:39;;;;;;;12.83;8.77;;;;;;;1.34;56.70;100176.48;2485275;75;34869;-82
2021/01/15 08:15:04;;;;;;;12.53;9.03;;;;;;;1.33;56.74;100178.17;2454346;78;26109;-81
2021/01/15 08:18:43;;;;;;;15.38;8.75;;;;;;;1.39;56.67;100173.39;2364635;82;25772;-79
2021/01/15 08:22:14;;;;;;;13.38;8.30;;;;;;;1.46;56.59;100169.89;2446713;77;26154;-82
2021/01/15 08:25:38;;;;;;;15.53;9.70;;;;;;;1.54;56.48;100176.33;2439151;77;26216;-81
2021/01/15 08:51:11;;;;;;;14.47;9.17;;;;;;;1.91;55.94;100191.22;2439527;78;34999;-83
2021/01/15 08:54:46;;;;;;;14.68;9.75;;;;;;;1.87;55.93;100189.77;2321559;83;26095;-92
2021/01/15 08:58:23;;;;;;;15.03;9.13;;;;;;;1.89;55.89;100180.46;2289381;83;26248;-90
2021/01/15 09:02:52;;;;;;;13.58;9.28;;;;;;;1.96;55.86;100190.68;2328798;83;26471;-86
2021/01/15 09:06:56;;;;;;;13.43;8.55;;;;;;;2.01;55.73;100198.62;2305374;82;26203;-84
2021/01/15 09:21:26;;;;;;;15.77;9.27;;;;;;;2.26;55.45;100196.59;2361038;81;34875;-83
2021/01/15 09:25:14;;;;;;;15.95;10.08;;;;;;;2.25;55.37;100198.66;2349907;82;26189;-87
2021/01/15 09:28:49;;;;;;;15.85;9.55;;;;;;;2.31;55.34;100198.12;2344715;82;26157;-89
2021/01/15 09:32:26;;;;;;;13.40;9.43;;;;;;;2.48;57.30;100193.88;2333705;82;26220;-87
2021/01/15 09:35:47;;;;;;;19.73;9.78;;;;;;;2.60;57.17;100197.09;2339569;83;25824;-86
2021/01/15 09:39:37;;;;;;;13.18;9.63;;;;;;;2.67;57.30;100184.14;2341374;83;26101;-87
2021/01/15 09:56:40;;;;;;;14.55;9.83;;;;;;;2.95;56.67;100182.16;2285245;82;25843;-87
2021/01/15 10:18:14;;;;;;;27.27;14.58;;;;;;;2.95;56.26;100144.83;2408648;76;25930;-93
2021/01/15 10:26:43;;;;;;;;;;;;;;;3.05;54.77;100071.08;2459219;78;26381;-89
2021/01/15 10:30:13;;;;;;;24.60;14.53;;;;;;;2.97;53.54;100070.22;2415956;79;26256;-82
2021/01/15 10:33:43;;;;;;;25.75;14.43;;;;;;;2.98;53.33;100080.61;2388251;80;25714;-88
2021/01/15 10:37:10;;;;;;;28.25;14.30;;;;;;;2.99;52.75;100092.66;2373024;80;25825;-88
2021/01/15 10:40:41;;;;;;;36.95;16.25;;;;;;;2.98;52.33;100095.17;2429356;79;25826;-88
2021/01/15 10:44:16;;;;;;;36.95;17.55;;;;;;;2.95;52.03;100101.46;2423008;79;25645;-82
2021/01/15 10:47:44;;;;;;;32.67;15.60;;;;;;;2.90;51.82;100101.21;2441178;80;26116;-82
2021/01/15 10:51:11;;;;;;;30.68;15.85;;;;;;;2.82;51.43;100116.29;2423464;80;26252;-83
2021/01/15 10:54:41;;;;;;;29.60;14.40;;;;;;;2.77;51.22;100116.48;2443308;79;25754;-83
2021/01/15 10:58:48;;;;;;;26.77;14.47;;;;;;;2.74;51.17;100116.73;2400919;79;26657;-83
2021/01/15 11:02:16;;;;;;;22.77;13.18;;;;;;;2.66;50.85;100125.73;2404769;80;25948;-90
2021/01/15 11:05:38;;;;;;;20.65;12.35;;;;;;;2.57;50.67;100130.02;2419726;79;25888;-84
2021/01/15 11:09:19;;;;;;;25.50;13.85;;;;;;;2.47;50.66;100114.52;2431737;78;25714;-82
2021/01/15 11:12:45;;;;;;;21.77;13.32;;;;;;;2.40;50.43;100110.23;2408312;79;25827;-80
2021/01/15 11:16:14;;;;;;;20.77;12.60;;;;;;;2.28;50.30;100098.52;2418847;79;26030;-83
2021/01/15 11:19:45;;;;;;;43.38;18.02;;;;;;;2.18;50.10;100089.84;2398827;80;26200;-85
2021/01/15 11:23:14;;;;;;;38.15;15.30;;;;;;;2.29;54.93;100099.40;2413950;75;25872;-84
2021/01/15 11:26:48;;;;;;;;;;;;;;;2.51;54.60;100102.69;2404192;81;26467;-83
2021/01/15 11:30:14;;;;;;;26.65;13.13;;;;;;;2.73;57.26;100081.06;2417475;80;25524;-83
2021/01/15 11:33:44;;;;;;;23.20;14.23;;;;;;;2.74;53.98;100084.14;2414257;80;25698;-81
2021/01/15 11:37:17;;;;;;;22.80;12.98;;;;;;;2.58;53.02;100078.63;2406821;80;25689;-82
2021/01/15 11:40:39;;;;;;;25.15;11.68;;;;;;;2.43;52.41;100071.80;2399811;80;25595;-79
2021/01/15 11:44:10;;;;;;;27.50;10.82;;;;;;;2.30;53.97;100072.48;2433368;79;25639;-79
2021/01/15 11:48:15;;;;;;;40.30;12.37;;;;;;;3.45;60.79;100065.66;2576447;76;26402;-82
2021/01/15 11:51:41;;;;;;;29.85;11.80;;;;;;;4.35;60.51;100067.55;2525849;77;25679;-81
2021/01/15 11:55:12;;;;;;;27.27;10.85;;;;;;;5.18;60.51;100065.42;2531546;77;25908;-85
2021/01/15 11:58:44;;;;;;;24.27;10.20;;;;;;;5.91;60.35;100075.16;2435413;80;25747;-81
2021/01/15 12:02:31;;;;;;;20.15;9.85;;;;;;;6.51;59.97;100074.73;2486577;77;25948;-81
2021/01/15 12:06:13;;;;;;;22.58;11.60;;;;;;;7.03;59.94;100065.72;2468251;77;26142;-83
2021/01/15 12:09:41;;;;;;;27.80;13.80;;;;;;;7.47;58.78;100067.55;2394319;80;26117;-88
2021/01/15 12:13:16;;;;;;;25.95;13.80;;;;;;;7.27;56.50;100058.27;2463937;77;26002;-84
2021/01/15 12:16:46;;;;;;;24.72;13.80;;;;;;;6.96;55.42;100056.41;2485469;77;26013;-84
2021/01/15 12:20:11;;;;;;;27.77;15.63;;;;;;;6.62;54.67;100054.87;2460423;77;25955;-84
2021/01/15 12:23:44;;;;;;;25.88;13.68;;;;;;;6.32;54.00;100058.56;2483660;78;26033;-84
2021/01/15 12:27:46;;;;;;;22.20;13.03;;;;;;;6.05;53.38;100064.92;2485984;77;25589;-83
2021/01/15 12:40:51;;;;;;;21.75;13.15;;;;;;;5.49;54.87;100055.00;2474648;77;25988;-84
2021/01/15 13:02:15;;;;;;;21.30;12.47;;;;;;;4.76;54.82;100040.92;2467907;77;26884;-84
2021/01/15 13:05:43;;;;;;;;;;;;;;;4.66;54.86;100033.61;2465094;77;26094;-82
2021/01/15 13:09:15;;;;;;;15.78;11.97;;;;;;;4.58;54.80;100029.39;2473350;76;25995;-84
2021/01/15 13:12:45;;;;;;;22.20;13.15;;;;;;;4.49;54.87;100024.75;2489086;77;25697;-83
2021/01/15 13:16:08;;;;;;;23.85;12.37;;;;;;;4.39;54.87;100025.18;2455842;77;25767;-84
2021/01/15 13:19:40;;;;;;;22.95;12.33;;;;;;;4.31;54.91;100030.41;2494712;76;26228;-85
2021/01/15 13:23:15;;;;;;;19.98;13.05;;;;;;;4.27;54.96;100031.09;2494033;76;25884;-86
2021/01/15 13:26:52;;;;;;;25.40;13.13;;;;;;;4.21;54.99;100030.41;2472306;77;25607;-84
2021/01/15 13:30:14;;;;;;;22.02;12.68;;;;;;;4.17;55.04;100031.10;2467013;77;26061;-83
2021/01/15 13:33:44;;;;;;;20.85;12.63;;;;;;;4.13;55.06;100025.34;2402408;79;26208;-84
2021/01/15 13:37:05;;;;;;;20.65;13.65;;;;;;;4.07;55.08;100025.48;2380100;80;25818;-84
2021/01/15 13:40:45;;;;;;;23.25;13.20;;;;;;;4.01;55.13;100029.54;2440246;79;26165;-83
2021/01/15 13:44:17;;;;;;;18.00;13.00;;;;;;;3.98;55.18;100022.08;2448955;79;26099;-83
2021/01/15 13:47:41;;;;;;;19.37;12.30;;;;;;;3.91;55.23;100026.08;2429834;79;25750;-83
2021/01/15 13:51:46;;;;;;;22.02;13.85;;;;;;;3.86;55.28;100030.17;2437777;79;25729;-84
2021/01/15 13:55:18;;;;;;;21.60;13.88;;;;;;;3.80;55.33;100026.02;2447101;78;26026;-83
2021/01/15 13:58:50;;;;;;;22.52;12.60;;;;;;;3.74;55.41;100029.61;2443346;77;25651;-81
2021/01/15 14:02:12;;;;;;;21.97;13.38;;;;;;;3.73;56.36;100025.27;2445620;79;25921;-80
2021/01/15 14:05:50;;;;;;;22.32;13.32;;;;;;;3.73;56.27;100036.46;2425549;77;25822;-81
2021/01/15 14:09:48;;;;;;;20.75;13.50;;;;;;;3.70;56.38;100034.16;2398794;78;27173;-85
2021/01/15 14:13:19;;;;;;;25.20;14.95;;;;;;;3.65;56.43;100047.26;2447052;79;25670;-81
2021/01/15 14:16:50;;;;;;;22.35;13.32;;;;;;;3.60;56.46;100042.28;2461168;77;25725;-81
2021/01/15 14:20:19;;;;;;;24.35;13.78;;;;;;;3.57;56.49;100047.30;2457324;77;26381;-82
2021/01/15 14:23:40;;;;;;;25.12;13.45;;;;;;;3.50;56.50;100043.14;2440958;79;26260;-80
2021/01/15 14:27:16;;;;;;;22.10;13.30;;;;;;;3.47;56.53;100044.70;2439508;79;26155;-81
2021/01/15 14:30:37;;;;;;;23.65;13.30;;;;;;;3.43;56.52;100047.95;2453629;77;26085;-80
2021/01/15 14:34:16;;;;;;;20.12;12.60;;;;;;;3.38;56.55;100051.61;2463535;77;26141;-80
2021/01/15 14:38:13;;;;;;;22.77;15.35;;;;;;;3.34;56.56;100057.41;2396075;80;26182;-86
2021/01/15 14:52:46;;;;;;;21.13;12.47;;;;;;;3.15;56.52;100074.11;2450356;79;26943;-86
2021/01/15 14:56:26;;;;;;;22.80;13.28;;;;;;;3.06;56.50;100080.97;2406552;80;25854;-80
2021/01/15 15:00:50;;;;;;;21.55;12.30;;;;;;;3.00;56.54;100078.09;2431420;80;25994;-82
2021/01/15 15:04:17;;;;;;;373.68;168.15;;;;;;;2.96;56.52;100079.63;2402029;79;25959;-86
2021/01/15 15:11:44;;;;;;;271.07;120.47;;;;;;;3.47;61.83;100091.95;2233866;86;26101;-86
2021/01/15 15:16:36;;;;;;;233.50;106.33;;;;;;;3.40;61.20;100096.34;2480460;77;26047;-86
2021/01/15 15:20:16;;;;;;;208.02;94.20;;;;;;;3.28;60.92;100097.07;2431784;80;25931;-85
2021/01/15 15:23:44;;;;;;;;;;;;;;;3.21;60.80;100104.03;2426618;80;26058;-86
2021/01/15 15:27:15;;;;;;;182.90;81.90;;;;;;;3.14;60.69;100105.80;2412837;80;25952;-86
2021/01/15 15:31:19;;;;;;;164.72;75.52;;;;;;;3.06;60.58;100108.02;2427959;80;25832;-82
2021/01/15 15:34:43;;;;;;;165.20;71.50;;;;;;;3.01;60.48;100109.50;2400774;80;25798;-82
2021/01/15 15:38:13;;;;;;;156.65;69.30;;;;;;;2.95;60.43;100118.20;2409417;80;26103;-84
2021/01/15 15:42:17;;;;;;;138.00;61.40;;;;;;;2.91;60.36;100120.15;2371214;80;26057;-81
2021/01/15 16:06:42;;;;;;;80.03;37.93;;;;;;;2.66;59.81;100147.20;2429241;79;35264;-83
2021/01/15 16:10:09;;;;;;;77.10;35.28;;;;;;;2.54;59.59;100150.05;2298600;83;25854;-86
2021/01/15 16:13:42;;;;;;;72.40;34.92;;;;;;;2.49;59.42;100157.03;2289994;85;26464;-81
2021/01/15 16:17:04;;;;;;;66.07;32.55;;;;;;;2.42;59.36;100154.54;2298736;83;25861;-82
2021/01/15 16:20:37;;;;;;;63.17;31.73;;;;;;;2.38;59.30;100165.89;2286738;85;26357;-87
2021/01/15 16:23:58;;;;;;;57.98;28.02;;;;;;;2.33;59.22;100163.09;2225121;86;26291;-79
2021/01/15 16:27:34;;;;;;;56.70;27.15;;;;;;;2.26;58.87;100168.30;2263231;86;25792;-81
2021/01/15 16:30:56;;;;;;;43.50;23.10;;;;;;;2.18;58.44;100174.70;2270267;86;25924;-82
2021/01/15 16:34:33;;;;;;;41.80;22.52;;;;;;;2.08;58.15;100172.45;2246022;85;25629;-81
2021/01/15 16:38:19;;;;;;;36.05;18.90;;;;;;;2.00;57.92;100182.73;2246670;86;25935;-86
2021/01/15 16:42:05;;;;;;;38.45;17.90;;;;;;;1.92;57.71;100182.29;2192567;87;25796;-82
2021/01/15 16:45:27;;;;;;;29.42;16.82;;;;;;;1.83;57.70;100198.11;2235525;87;25903;-81
2021/01/15 16:48:59;;;;;;;29.18;17.12;;;;;;;1.79;57.75;100199.12;2261137;86;25704;-83
2021/01/15 16:52:40;;;;;;;30.68;16.23;;;;;;;1.75;57.75;100197.19;2258264;86;25958;-82
2021/01/15 16:56:22;;;;;;;31.70;16.37;;;;;;;1.71;57.69;100196.54;2199384;88;25781;-81
2021/01/15 17:00:10;;;;;;;318.07;141.77;;;;;;;1.66;57.64;100201.44;2192402;87;25765;-81
2021/01/15 17:03:43;;;;;;;257.02;109.27;;;;;;;1.81;60.41;100210.38;2199031;86;26601;-83
2021/01/15 17:07:47;;;;;;;;;;;;;;;1.85;59.85;100218.74;2240539;84;25859;-80
2021/01/15 17:11:19;;;;;;;265.75;119.53;;;;;;;1.79;61.24;100220.59;2241408;86;26023;-82
2021/01/15 17:15:07;;;;;;;242.60;112.37;;;;;;;1.89;60.91;100228.42;2248938;84;26143;-81
2021/01/15 17:19:07;;;;;;;228.15;100.47;;;;;;;1.86;60.57;100238.53;2272100;83;26136;-81
2021/01/15 17:27:16;;;;;;;179.25;80.00;;;;;;;1.74;60.22;100233.97;2275533;84;26685;-81
2021/01/15 17:42:00;;;;;;;151.90;75.83;;;;;;;1.56;59.78;100247.55;2462734;77;28668;-82
2021/01/15 17:45:38;;;;;;;120.30;54.40;;;;;;;1.63;59.70;100256.09;2394510;80;25760;-81
2021/01/15 17:49:53;;;;;;;;;;;;;;;;;;;;;
2021/01/15 18:05:40;;;;;;;71.20;35.83;;;;;;;1.32;58.86;100270.55;2529212;75;35160;-78
2021/01/15 18:09:27;;;;;;;66.97;33.65;;;;;;;1.21;58.86;100275.03;2407244;79;25559;-82
2021/01/15 18:13:10;;;;;;;67.05;32.35;;;;;;;1.14;58.75;100283.17;2368316;79;25733;-80
2021/01/15 18:16:48;;;;;;;55.10;28.98;;;;;;;1.10;58.63;100285.95;2314213;82;26102;-88
2021/01/15 18:35:11;;;;;;;39.23;19.90;;;;;;;0.85;58.28;100304.14;2279431;81;26015;-83
2021/01/15 18:38:40;;;;;;;37.35;19.50;;;;;;;0.81;58.21;100311.17;2215210;85;26016;-79
2021/01/15 18:42:52;;;;;;;37.88;20.80;;;;;;;0.77;58.15;100318.56;2253212;85;25991;-83
2021/01/15 18:46:14;;;;;;;33.55;17.42;;;;;;;0.74;58.07;100315.41;2293792;83;25754;-79
2021/01/15 18:49:44;;;;;;;37.98;18.55;;;;;;;0.70;57.99;100316.02;2242413;85;25944;-80
2021/01/15 19:25:15;;;;;;;17.70;12.25;;;;;;;0.46;57.55;100331.66;2246791;82;26278;-83
2021/01/15 19:29:41;;;;;;;15.85;11.00;;;;;;;0.44;57.53;100337.11;2252772;85;26518;-84
2021/01/15 19:37:49;;;;;;;18.62;10.85;;;;;;;0.40;57.42;100329.10;2239543;86;26157;-91
2021/01/15 19:41:12;;;;;;;14.18;9.80;;;;;;;0.38;57.35;100337.11;2279411;85;25798;-84
2021/01/15 19:44:40;;;;;;;19.27;10.25;;;;;;;0.38;57.28;100334.55;2259989;85;26104;-85
2021/01/15 19:48:11;;;;;;;18.45;10.30;;;;;;;0.35;57.27;100330.51;2287334;84;26129;-84
2021/01/15 19:51:45;;;;;;;13.45;9.48;;;;;;;0.34;57.22;100333.47;2272984;83;26179;-86
2021/01/15 19:55:09;;;;;;;13.10;8.83;;;;;;;0.33;57.19;100347.05;2249321;85;26236;-88
2021/01/15 19:58:45;;;;;;;15.90;9.18;;;;;;;0.32;57.16;100346.58;2220356;86;26055;-89
2021/01/15 20:02:26;;;;;;;16.02;10.40;;;;;;;0.32;57.14;100349.54;2257629;84;26177;-81
2021/01/15 20:05:49;;;;;;;13.35;8.73;;;;;;;0.30;57.09;100350.70;2331957;83;26276;-77
2021/01/15 20:09:18;;;;;;;15.08;9.58;;;;;;;0.30;57.05;100340.84;2320239;83;25822;-81
2021/01/15 20:13:14;;;;;;;16.25;9.45;;;;;;;0.29;57.03;100342.53;2323461;83;25759;-89
2021/01/15 20:17:16;;;;;;;17.75;9.65;;;;;;;0.28;56.98;100343.33;2345579;83;26194;-81
2021/01/15 20:21:17;;;;;;;14.63;9.83;;;;;;;0.25;56.93;100344.41;2255635;86;25930;-82
2021/01/15 20:25:37;;;;;;;15.03;8.83;;;;;;;0.22;56.87;100346.78;2237851;86;26147;-87
2021/01/15 20:33:44;;;;;;;16.87;10.70;;;;;;;0.16;56.78;100347.66;2127309;89;26253;-87
2021/01/15 20:48:40;;;;;;;16.03;10.53;;;;;;;0.07;56.63;100358.23;2369534;80;34527;-89
2021/01/15 20:52:17;;;;;;;19.17;10.90;;;;;;;-0.02;56.64;100365.31;2427082;80;25918;-84
2021/01/15 20:55:52;;;;;;;19.80;11.48;;;;;;;-0.04;56.64;100370.31;2420637;80;25575;-87
2021/01/15 20:59:43;;;;;;;21.85;12.10;;;;;;;-0.06;56.64;100365.91;2412601;79;26024;-86
2021/01/15 21:03:10;;;;;;;21.55;12.65;;;;;;;-0.09;56.60;100373.39;2425491;79;25953;-83
2021/01/15 21:21:50;;;;;;;20.23;10.38;;;;;;;-0.29;56.45;100362.70;2398485;81;26023;-88
2021/01/15 21:25:36;;;;;;;21.90;11.80;;;;;;;-0.31;56.43;100364.27;2411281;81;25770;-90
2021/01/15 21:29:20;;;;;;;;;;;;;;;;;;;;;
2021/01/15 21:32:54;;;;;;;22.32;11.85;;;;;;;-0.36;56.37;100368.22;2290152;80;25795;-87
2021/01/15 21:36:52;;;;;;;24.23;12.80;;;;;;;-0.39;56.34;100370.56;2231802;85;25718;-88
2021/01/15 21:51:16;;;;;;;22.33;11.77;;;;;;;-0.46;56.27;100374.79;2383390;80;35106;-82
2021/01/15 21:54:50;;;;;;;;;;;;;;;;;;;;;
2021/01/15 22:04:21;;;;;;;24.77;13.60;;;;;;;-0.60;56.24;100385.78;2286336;83;25929;-87
2021/01/15 22:12:42;;;;;;;27.67;14.75;;;;;;;-0.66;56.16;100378.95;2304571;84;25994;-86
2021/01/15 22:16:14;;;;;;;23.95;14.45;;;;;;;-0.70;56.15;100380.42;2260730;85;26233;-92
2021/01/15 22:20:32;;;;;;;30.48;16.00;;;;;;;-0.72;56.08;100390.54;2194862;85;26225;-87
2021/01/15 22:24:11;;;;;;;29.10;15.10;;;;;;;-0.74;56.06;100387.41;2308865;83;25720;-81
2021/01/15 22:28:30;;;;;;;27.62;15.55;;;;;;;-0.77;56.02;100381.68;2298872;81;25490;-85
